sensor_id;sensor_type;location;lat;lon;timestamp;P1;durP1;ratioP1;P2;durP2;ratioP2
76552;SDS011;65395;53.168;18.156;2023-04-01T00:02:23;28.70;;;15.90;;
76552;SDS011;65395;53.168;18.156;2023-04-01T00:04:50;25.40;;;14.70;;
76552;SDS011;65395;53.168;18.156;2023-04-01T00:07:17;25.30;;;15.30;;
76552;SDS011;65395;53.168;18.156;2023-04-01T00:09:44;25.90;;;14.70;;
76552;SDS011;65395;53.168;18.156;2023-04-01T00:12:10;25.00;;;15.60;;
76552;SDS011;65395;53.168;18.156;2023-04-01T00:14:37;27.60;;;14.70;;
76552;SDS011;65395;53.168;18.156;2023-04-01T00:17:05;24.00;;;14.80;;
76552;SDS011;65395;53.168;18.156;2023-04-01T00:19:32;26.80;;;15.70;;
76552;SDS011;65395;53.168;18.156;2023-04-01T00:21:59;25.20;;;15.70;;
76552;SDS011;65395;53.168;18.156;2023-04-01T00:24:26;24.90;;;15.00;;
76552;SDS011;65395;53.168;18.156;2023-04-01T00:26:53;25.50;;;16.00;;
76552;SDS011;65395;53.168;18.156;2023-04-01T00:29:20;25.50;;;15.40;;
76552;SDS011;65395;53.168;18.156;2023-04-01T00:31:47;23.50;;;14.90;;
76552;SDS011;65395;53.168;18.156;2023-04-01T00:34:15;25.80;;;15.70;;
76552;SDS011;65395;53.168;18.156;2023-04-01T00:36:42;25.10;;;15.10;;
76552;SDS011;65395;53.168;18.156;2023-04-01T00:39:08;22.80;;;14.70;;
76552;SDS011;65395;53.168;18.156;2023-04-01T00:41:36;24.40;;;14.70;;
76552;SDS011;65395;53.168;18.156;2023-04-01T00:46:44;21.00;;;13.90;;
76552;SDS011;65395;53.168;18.156;2023-04-01T00:49:11;24.10;;;14.50;;
76552;SDS011;65395;53.168;18.156;2023-04-01T00:51:39;23.80;;;14.30;;
76552;SDS011;65395;53.168;18.156;2023-04-01T00:54:09;23.50;;;14.10;;
76552;SDS011;65395;53.168;18.156;2023-04-01T00:56:39;23.80;;;14.30;;
76552;SDS011;65395;53.168;18.156;2023-04-01T00:59:11;24.50;;;15.10;;
76552;SDS011;65395;53.168;18.156;2023-04-01T01:01:42;23.60;;;15.20;;
76552;SDS011;65395;53.168;18.156;2023-04-01T01:06:50;22.50;;;14.10;;
76552;SDS011;65395;53.168;18.156;2023-04-01T01:09:30;25.90;;;14.90;;
76552;SDS011;65395;53.168;18.156;2023-04-01T01:12:11;25.20;;;15.00;;
76552;SDS011;65395;53.168;18.156;2023-04-01T01:17:38;25.90;;;15.70;;
76552;SDS011;65395;53.168;18.156;2023-04-01T01:20:17;23.90;;;14.50;;
76552;SDS011;65395;53.168;18.156;2023-04-01T01:23:04;28.80;;;16.60;;
76552;SDS011;65395;53.168;18.156;2023-04-01T01:25:57;26.40;;;15.30;;
76552;SDS011;65395;53.168;18.156;2023-04-01T01:31:37;22.30;;;14.40;;
76552;SDS011;65395;53.168;18.156;2023-04-01T01:34:20;25.70;;;14.70;;
76552;SDS011;65395;53.168;18.156;2023-04-01T01:36:57;23.00;;;14.20;;
76552;SDS011;65395;53.168;18.156;2023-04-01T01:39:30;23.20;;;14.40;;
76552;SDS011;65395;53.168;18.156;2023-04-01T01:42:01;22.60;;;13.80;;
76552;SDS011;65395;53.168;18.156;2023-04-01T01:44:31;21.60;;;12.70;;
76552;SDS011;65395;53.168;18.156;2023-04-01T01:47:02;21.20;;;12.20;;
76552;SDS011;65395;53.168;18.156;2023-04-01T01:49:29;19.80;;;12.50;;
76552;SDS011;65395;53.168;18.156;2023-04-01T01:51:59;19.90;;;11.20;;
76552;SDS011;65395;53.168;18.156;2023-04-01T01:54:26;19.80;;;11.40;;
76552;SDS011;65395;53.168;18.156;2023-04-01T01:56:55;18.00;;;11.00;;
76552;SDS011;65395;53.168;18.156;2023-04-01T01:59:37;16.60;;;10.60;;
76552;SDS011;65395;53.168;18.156;2023-04-01T02:02:06;18.70;;;11.20;;
76552;SDS011;65395;53.168;18.156;2023-04-01T02:04:37;20.10;;;11.60;;
76552;SDS011;65395;53.168;18.156;2023-04-01T02:07:07;15.80;;;10.40;;
76552;SDS011;65395;53.168;18.156;2023-04-01T02:09:39;14.90;;;10.70;;
76552;SDS011;65395;53.168;18.156;2023-04-01T02:12:08;17.80;;;10.70;;
76552;SDS011;65395;53.168;18.156;2023-04-01T02:17:20;20.90;;;12.00;;
76552;SDS011;65395;53.168;18.156;2023-04-01T02:19:54;15.40;;;11.00;;
76552;SDS011;65395;53.168;18.156;2023-04-01T02:22:26;17.00;;;10.90;;
76552;SDS011;65395;53.168;18.156;2023-04-01T02:24:58;18.50;;;11.80;;
76552;SDS011;65395;53.168;18.156;2023-04-01T02:27:29;17.10;;;10.70;;
76552;SDS011;65395;53.168;18.156;2023-04-01T02:29:57;19.60;;;11.20;;
76552;SDS011;65395;53.168;18.156;2023-04-01T02:32:24;18.30;;;11.00;;
76552;SDS011;65395;53.168;18.156;2023-04-01T02:34:54;15.40;;;9.90;;
76552;SDS011;65395;53.168;18.156;2023-04-01T02:37:21;15.40;;;9.90;;
76552;SDS011;65395;53.168;18.156;2023-04-01T02:39:48;17.20;;;10.10;;
76552;SDS011;65395;53.168;18.156;2023-04-01T02:42:14;16.10;;;10.70;;
76552;SDS011;65395;53.168;18.156;2023-04-01T02:44:41;18.00;;;10.40;;
76552;SDS011;65395;53.168;18.156;2023-04-01T02:47:08;19.10;;;10.30;;
76552;SDS011;65395;53.168;18.156;2023-04-01T02:49:35;19.10;;;10.40;;
76552;SDS011;65395;53.168;18.156;2023-04-01T02:52:01;18.00;;;10.20;;
76552;SDS011;65395;53.168;18.156;2023-04-01T02:54:28;18.80;;;10.10;;
76552;SDS011;65395;53.168;18.156;2023-04-01T02:56:55;17.40;;;10.70;;
76552;SDS011;65395;53.168;18.156;2023-04-01T02:59:22;17.00;;;10.10;;
76552;SDS011;65395;53.168;18.156;2023-04-01T03:01:48;17.50;;;10.80;;
76552;SDS011;65395;53.168;18.156;2023-04-01T03:04:15;18.40;;;10.50;;
76552;SDS011;65395;53.168;18.156;2023-04-01T03:06:42;20.40;;;10.90;;
76552;SDS011;65395;53.168;18.156;2023-04-01T03:09:09;20.70;;;11.10;;
76552;SDS011;65395;53.168;18.156;2023-04-01T03:11:36;18.60;;;11.00;;
76552;SDS011;65395;53.168;18.156;2023-04-01T03:14:03;19.40;;;11.30;;
76552;SDS011;65395;53.168;18.156;2023-04-01T03:16:29;20.70;;;11.10;;
76552;SDS011;65395;53.168;18.156;2023-04-01T03:18:56;20.60;;;11.80;;
76552;SDS011;65395;53.168;18.156;2023-04-01T03:21:25;22.70;;;11.20;;
76552;SDS011;65395;53.168;18.156;2023-04-01T03:23:52;20.40;;;10.60;;
76552;SDS011;65395;53.168;18.156;2023-04-01T03:26:18;21.50;;;11.00;;
76552;SDS011;65395;53.168;18.156;2023-04-01T03:28:47;19.10;;;9.80;;
76552;SDS011;65395;53.168;18.156;2023-04-01T03:31:14;15.40;;;8.60;;
76552;SDS011;65395;53.168;18.156;2023-04-01T03:33:46;14.00;;;7.90;;
76552;SDS011;65395;53.168;18.156;2023-04-01T03:36:13;14.70;;;6.90;;
76552;SDS011;65395;53.168;18.156;2023-04-01T03:38:40;14.70;;;7.50;;
76552;SDS011;65395;53.168;18.156;2023-04-01T03:41:11;13.10;;;6.80;;
76552;SDS011;65395;53.168;18.156;2023-04-01T03:43:39;12.80;;;7.50;;
76552;SDS011;65395;53.168;18.156;2023-04-01T03:46:06;14.80;;;8.00;;
76552;SDS011;65395;53.168;18.156;2023-04-01T03:48:33;12.90;;;7.40;;
76552;SDS011;65395;53.168;18.156;2023-04-01T03:50:59;12.50;;;6.90;;
76552;SDS011;65395;53.168;18.156;2023-04-01T03:53:27;13.00;;;7.00;;
76552;SDS011;65395;53.168;18.156;2023-04-01T03:55:54;14.00;;;6.70;;
76552;SDS011;65395;53.168;18.156;2023-04-01T03:58:21;15.00;;;7.20;;
76552;SDS011;65395;53.168;18.156;2023-04-01T04:00:48;15.10;;;7.50;;
76552;SDS011;65395;53.168;18.156;2023-04-01T04:03:15;15.30;;;8.00;;
76552;SDS011;65395;53.168;18.156;2023-04-01T04:05:49;16.00;;;8.10;;
76552;SDS011;65395;53.168;18.156;2023-04-01T04:08:17;19.40;;;9.40;;
76552;SDS011;65395;53.168;18.156;2023-04-01T04:10:44;17.70;;;8.70;;
76552;SDS011;65395;53.168;18.156;2023-04-01T04:13:12;19.30;;;9.90;;
76552;SDS011;65395;53.168;18.156;2023-04-01T04:15:44;21.40;;;10.40;;
76552;SDS011;65395;53.168;18.156;2023-04-01T04:18:10;26.00;;;12.10;;
76552;SDS011;65395;53.168;18.156;2023-04-01T04:20:43;28.90;;;13.30;;
76552;SDS011;65395;53.168;18.156;2023-04-01T04:23:12;26.90;;;13.70;;
76552;SDS011;65395;53.168;18.156;2023-04-01T04:25:38;28.00;;;11.90;;
76552;SDS011;65395;53.168;18.156;2023-04-01T04:28:05;27.70;;;12.60;;
76552;SDS011;65395;53.168;18.156;2023-04-01T04:30:32;30.90;;;13.40;;
76552;SDS011;65395;53.168;18.156;2023-04-01T04:32:58;29.50;;;13.90;;
76552;SDS011;65395;53.168;18.156;2023-04-01T04:35:25;33.50;;;14.70;;
76552;SDS011;65395;53.168;18.156;2023-04-01T04:37:52;30.20;;;14.90;;
76552;SDS011;65395;53.168;18.156;2023-04-01T04:40:19;32.50;;;15.20;;
76552;SDS011;65395;53.168;18.156;2023-04-01T04:42:46;33.00;;;14.10;;
76552;SDS011;65395;53.168;18.156;2023-04-01T04:45:14;32.60;;;14.80;;
76552;SDS011;65395;53.168;18.156;2023-04-01T04:47:48;34.10;;;15.00;;
76552;SDS011;65395;53.168;18.156;2023-04-01T04:50:15;35.80;;;15.10;;
76552;SDS011;65395;53.168;18.156;2023-04-01T04:52:43;36.70;;;14.90;;
76552;SDS011;65395;53.168;18.156;2023-04-01T04:55:09;35.30;;;14.90;;
76552;SDS011;65395;53.168;18.156;2023-04-01T04:57:37;31.10;;;13.70;;
76552;SDS011;65395;53.168;18.156;2023-04-01T05:00:03;29.60;;;13.50;;
76552;SDS011;65395;53.168;18.156;2023-04-01T05:02:43;29.60;;;13.00;;
76552;SDS011;65395;53.168;18.156;2023-04-01T05:05:10;25.00;;;12.20;;
76552;SDS011;65395;53.168;18.156;2023-04-01T05:07:37;24.20;;;11.70;;
76552;SDS011;65395;53.168;18.156;2023-04-01T05:10:05;23.80;;;11.60;;
76552;SDS011;65395;53.168;18.156;2023-04-01T05:12:32;26.80;;;13.10;;
76552;SDS011;65395;53.168;18.156;2023-04-01T05:15:03;32.20;;;14.00;;
76552;SDS011;65395;53.168;18.156;2023-04-01T05:17:32;26.10;;;12.30;;
76552;SDS011;65395;53.168;18.156;2023-04-01T05:19:58;29.30;;;13.00;;
76552;SDS011;65395;53.168;18.156;2023-04-01T05:22:25;26.00;;;13.00;;
76552;SDS011;65395;53.168;18.156;2023-04-01T05:24:52;27.20;;;12.90;;
76552;SDS011;65395;53.168;18.156;2023-04-01T05:27:19;28.20;;;13.50;;
76552;SDS011;65395;53.168;18.156;2023-04-01T05:29:47;25.60;;;12.40;;
76552;SDS011;65395;53.168;18.156;2023-04-01T05:32:30;26.70;;;12.70;;
76552;SDS011;65395;53.168;18.156;2023-04-01T05:34:57;24.90;;;12.50;;
76552;SDS011;65395;53.168;18.156;2023-04-01T05:37:24;23.60;;;11.80;;
76552;SDS011;65395;53.168;18.156;2023-04-01T05:39:51;23.20;;;12.50;;
76552;SDS011;65395;53.168;18.156;2023-04-01T05:42:18;22.80;;;12.00;;
76552;SDS011;65395;53.168;18.156;2023-04-01T05:44:45;25.00;;;12.60;;
76552;SDS011;65395;53.168;18.156;2023-04-01T05:47:22;27.60;;;12.20;;
76552;SDS011;65395;53.168;18.156;2023-04-01T05:49:49;30.40;;;13.30;;
76552;SDS011;65395;53.168;18.156;2023-04-01T05:52:16;28.10;;;13.70;;
76552;SDS011;65395;53.168;18.156;2023-04-01T05:54:42;29.70;;;15.00;;
76552;SDS011;65395;53.168;18.156;2023-04-01T05:57:09;24.20;;;13.40;;
76552;SDS011;65395;53.168;18.156;2023-04-01T05:59:36;24.70;;;13.40;;
76552;SDS011;65395;53.168;18.156;2023-04-01T06:02:03;25.80;;;13.60;;
76552;SDS011;65395;53.168;18.156;2023-04-01T06:04:32;22.00;;;12.50;;
76552;SDS011;65395;53.168;18.156;2023-04-01T06:07:12;23.40;;;12.20;;
76552;SDS011;65395;53.168;18.156;2023-04-01T06:09:41;23.40;;;13.00;;
76552;SDS011;65395;53.168;18.156;2023-04-01T06:20:53;22.10;;;11.20;;
76552;SDS011;65395;53.168;18.156;2023-04-01T06:23:45;20.80;;;11.60;;
76552;SDS011;65395;53.168;18.156;2023-04-01T06:26:37;19.00;;;10.90;;
76552;SDS011;65395;53.168;18.156;2023-04-01T06:29:21;20.90;;;11.30;;
76552;SDS011;65395;53.168;18.156;2023-04-01T06:40:44;16.10;;;9.90;;
76552;SDS011;65395;53.168;18.156;2023-04-01T06:46:44;13.40;;;8.90;;
76552;SDS011;65395;53.168;18.156;2023-04-01T06:49:31;13.50;;;9.10;;
76552;SDS011;65395;53.168;18.156;2023-04-01T06:52:20;16.30;;;9.50;;
76552;SDS011;65395;53.168;18.156;2023-04-01T06:55:15;15.50;;;9.10;;
76552;SDS011;65395;53.168;18.156;2023-04-01T07:00:58;16.60;;;9.80;;
76552;SDS011;65395;53.168;18.156;2023-04-01T07:03:33;16.10;;;9.60;;
76552;SDS011;65395;53.168;18.156;2023-04-01T07:06:05;15.10;;;9.20;;
76552;SDS011;65395;53.168;18.156;2023-04-01T07:08:41;16.80;;;9.90;;
76552;SDS011;65395;53.168;18.156;2023-04-01T07:11:22;17.20;;;10.20;;
76552;SDS011;65395;53.168;18.156;2023-04-01T07:14:06;18.30;;;10.00;;
76552;SDS011;65395;53.168;18.156;2023-04-01T07:16:49;16.80;;;9.60;;
76552;SDS011;65395;53.168;18.156;2023-04-01T07:25:11;16.20;;;8.90;;
76552;SDS011;65395;53.168;18.156;2023-04-01T07:27:43;16.70;;;9.00;;
76552;SDS011;65395;53.168;18.156;2023-04-01T07:30:14;14.60;;;8.40;;
76552;SDS011;65395;53.168;18.156;2023-04-01T07:32:47;15.30;;;8.90;;
76552;SDS011;65395;53.168;18.156;2023-04-01T07:35:25;16.00;;;9.10;;
76552;SDS011;65395;53.168;18.156;2023-04-01T07:41:01;18.50;;;10.00;;
76552;SDS011;65395;53.168;18.156;2023-04-01T07:43:44;16.40;;;9.70;;
76552;SDS011;65395;53.168;18.156;2023-04-01T07:46:32;16.10;;;9.60;;
76552;SDS011;65395;53.168;18.156;2023-04-01T07:49:15;15.60;;;9.30;;
76552;SDS011;65395;53.168;18.156;2023-04-01T07:54:59;16.70;;;9.00;;
76552;SDS011;65395;53.168;18.156;2023-04-01T07:57:39;14.70;;;8.90;;
76552;SDS011;65395;53.168;18.156;2023-04-01T08:00:33;15.20;;;9.00;;
76552;SDS011;65395;53.168;18.156;2023-04-01T08:06:41;16.50;;;9.30;;
76552;SDS011;65395;53.168;18.156;2023-04-01T08:09:21;14.70;;;8.90;;
76552;SDS011;65395;53.168;18.156;2023-04-01T08:12:13;15.30;;;9.40;;
76552;SDS011;65395;53.168;18.156;2023-04-01T08:15:04;15.80;;;8.20;;
76552;SDS011;65395;53.168;18.156;2023-04-01T08:17:54;14.80;;;8.00;;
76552;SDS011;65395;53.168;18.156;2023-04-01T08:20:37;12.30;;;7.80;;
76552;SDS011;65395;53.168;18.156;2023-04-01T08:23:11;12.70;;;7.60;;
76552;SDS011;65395;53.168;18.156;2023-04-01T08:25:44;11.00;;;7.10;;
76552;SDS011;65395;53.168;18.156;2023-04-01T08:31:05;11.20;;;6.90;;
76552;SDS011;65395;53.168;18.156;2023-04-01T08:33:44;9.80;;;6.40;;
76552;SDS011;65395;53.168;18.156;2023-04-01T08:36:16;10.70;;;5.90;;
76552;SDS011;65395;53.168;18.156;2023-04-01T08:38:57;8.40;;;5.20;;
76552;SDS011;65395;53.168;18.156;2023-04-01T08:41:48;8.40;;;5.70;;
76552;SDS011;65395;53.168;18.156;2023-04-01T08:47:42;9.80;;;6.00;;
76552;SDS011;65395;53.168;18.156;2023-04-01T08:50:44;9.20;;;5.80;;
76552;SDS011;65395;53.168;18.156;2023-04-01T08:53:50;10.10;;;6.20;;
76552;SDS011;65395;53.168;18.156;2023-04-01T08:56:38;8.90;;;6.30;;
76552;SDS011;65395;53.168;18.156;2023-04-01T09:05:43;9.00;;;6.20;;
76552;SDS011;65395;53.168;18.156;2023-04-01T09:08:31;7.20;;;5.70;;
76552;SDS011;65395;53.168;18.156;2023-04-01T09:14:25;7.50;;;5.30;;
76552;SDS011;65395;53.168;18.156;2023-04-01T09:26:03;6.40;;;4.70;;
76552;SDS011;65395;53.168;18.156;2023-04-01T09:28:42;6.60;;;5.00;;
76552;SDS011;65395;53.168;18.156;2023-04-01T09:31:32;5.70;;;4.30;;
76552;SDS011;65395;53.168;18.156;2023-04-01T09:45:37;5.70;;;4.10;;
76552;SDS011;65395;53.168;18.156;2023-04-01T09:48:31;7.80;;;4.60;;
76552;SDS011;65395;53.168;18.156;2023-04-01T09:54:02;7.40;;;4.90;;
76552;SDS011;65395;53.168;18.156;2023-04-01T09:56:49;6.10;;;4.30;;
76552;SDS011;65395;53.168;18.156;2023-04-01T10:02:51;6.50;;;4.10;;
76552;SDS011;65395;53.168;18.156;2023-04-01T10:05:40;5.80;;;4.20;;
76552;SDS011;65395;53.168;18.156;2023-04-01T10:08:29;7.20;;;4.20;;
76552;SDS011;65395;53.168;18.156;2023-04-01T10:17:19;6.10;;;4.10;;
76552;SDS011;65395;53.168;18.156;2023-04-01T10:20:19;6.30;;;4.40;;
76552;SDS011;65395;53.168;18.156;2023-04-01T10:31:47;5.10;;;3.70;;
76552;SDS011;65395;53.168;18.156;2023-04-01T10:34:47;7.60;;;3.60;;
76552;SDS011;65395;53.168;18.156;2023-04-01T10:40:35;6.20;;;3.70;;
76552;SDS011;65395;53.168;18.156;2023-04-01T10:43:30;5.40;;;3.50;;
76552;SDS011;65395;53.168;18.156;2023-04-01T10:46:30;5.70;;;3.20;;
76552;SDS011;65395;53.168;18.156;2023-04-01T10:52:12;5.20;;;3.40;;
76552;SDS011;65395;53.168;18.156;2023-04-01T10:55:48;4.60;;;3.20;;
76552;SDS011;65395;53.168;18.156;2023-04-01T11:04:38;5.20;;;3.00;;
76552;SDS011;65395;53.168;18.156;2023-04-01T11:07:36;5.90;;;3.70;;
76552;SDS011;65395;53.168;18.156;2023-04-01T11:10:32;5.00;;;3.30;;
76552;SDS011;65395;53.168;18.156;2023-04-01T11:16:18;3.90;;;2.70;;
76552;SDS011;65395;53.168;18.156;2023-04-01T11:22:12;4.50;;;2.70;;
76552;SDS011;65395;53.168;18.156;2023-04-01T11:25:05;3.70;;;2.40;;
76552;SDS011;65395;53.168;18.156;2023-04-01T11:31:00;4.20;;;2.70;;
76552;SDS011;65395;53.168;18.156;2023-04-01T11:33:44;3.00;;;2.40;;
76552;SDS011;65395;53.168;18.156;2023-04-01T11:36:50;3.20;;;2.30;;
76552;SDS011;65395;53.168;18.156;2023-04-01T11:39:41;2.80;;;2.00;;
76552;SDS011;65395;53.168;18.156;2023-04-01T11:42:43;4.00;;;1.90;;
76552;SDS011;65395;53.168;18.156;2023-04-01T11:45:35;2.40;;;2.00;;
76552;SDS011;65395;53.168;18.156;2023-04-01T11:48:17;2.70;;;2.20;;
76552;SDS011;65395;53.168;18.156;2023-04-01T11:51:06;2.50;;;2.10;;
76552;SDS011;65395;53.168;18.156;2023-04-01T11:56:50;3.10;;;2.10;;
76552;SDS011;65395;53.168;18.156;2023-04-01T12:05:23;2.90;;;2.20;;
76552;SDS011;65395;53.168;18.156;2023-04-01T12:08:06;3.50;;;2.60;;
76552;SDS011;65395;53.168;18.156;2023-04-01T12:10:55;3.40;;;2.40;;
76552;SDS011;65395;53.168;18.156;2023-04-01T12:13:35;5.10;;;2.40;;
76552;SDS011;65395;53.168;18.156;2023-04-01T12:16:13;5.40;;;2.50;;
76552;SDS011;65395;53.168;18.156;2023-04-01T12:19:07;4.30;;;2.40;;
76552;SDS011;65395;53.168;18.156;2023-04-01T12:21:52;3.00;;;2.00;;
76552;SDS011;65395;53.168;18.156;2023-04-01T12:24:41;3.00;;;2.30;;
76552;SDS011;65395;53.168;18.156;2023-04-01T12:36:00;3.80;;;2.20;;
76552;SDS011;65395;53.168;18.156;2023-04-01T12:38:50;3.60;;;2.40;;
76552;SDS011;65395;53.168;18.156;2023-04-01T12:41:44;4.20;;;2.20;;
76552;SDS011;65395;53.168;18.156;2023-04-01T12:44:41;2.80;;;1.80;;
76552;SDS011;65395;53.168;18.156;2023-04-01T12:47:27;2.70;;;1.90;;
76552;SDS011;65395;53.168;18.156;2023-04-01T12:55:45;2.40;;;2.10;;
76552;SDS011;65395;53.168;18.156;2023-04-01T13:04:14;4.10;;;2.30;;
76552;SDS011;65395;53.168;18.156;2023-04-01T13:07:11;3.30;;;2.10;;
76552;SDS011;65395;53.168;18.156;2023-04-01T13:09:52;3.40;;;2.10;;
76552;SDS011;65395;53.168;18.156;2023-04-01T13:18:08;3.40;;;2.50;;
76552;SDS011;65395;53.168;18.156;2023-04-01T13:23:46;3.40;;;2.10;;
76552;SDS011;65395;53.168;18.156;2023-04-01T13:26:34;5.10;;;3.10;;
76552;SDS011;65395;53.168;18.156;2023-04-01T13:29:21;3.60;;;2.30;;
76552;SDS011;65395;53.168;18.156;2023-04-01T13:34:47;2.20;;;1.80;;
76552;SDS011;65395;53.168;18.156;2023-04-01T13:40:33;2.80;;;1.90;;
76552;SDS011;65395;53.168;18.156;2023-04-01T13:45:55;3.20;;;2.10;;
76552;SDS011;65395;53.168;18.156;2023-04-01T13:48:45;3.90;;;2.60;;
76552;SDS011;65395;53.168;18.156;2023-04-01T13:57:26;2.80;;;2.20;;
76552;SDS011;65395;53.168;18.156;2023-04-01T14:00:23;3.60;;;2.60;;
76552;SDS011;65395;53.168;18.156;2023-04-01T14:06:05;3.70;;;2.70;;
76552;SDS011;65395;53.168;18.156;2023-04-01T14:09:01;3.50;;;2.60;;
76552;SDS011;65395;53.168;18.156;2023-04-01T14:11:45;3.80;;;2.40;;
76552;SDS011;65395;53.168;18.156;2023-04-01T14:14:31;4.80;;;2.60;;
76552;SDS011;65395;53.168;18.156;2023-04-01T14:17:15;4.30;;;2.70;;
76552;SDS011;65395;53.168;18.156;2023-04-01T14:23:00;5.40;;;3.40;;
76552;SDS011;65395;53.168;18.156;2023-04-01T14:28:44;4.40;;;2.90;;
76552;SDS011;65395;53.168;18.156;2023-04-01T14:34:22;5.30;;;2.90;;
76552;SDS011;65395;53.168;18.156;2023-04-01T14:39:43;4.80;;;3.00;;
76552;SDS011;65395;53.168;18.156;2023-04-01T14:45:35;9.80;;;4.20;;
76552;SDS011;65395;53.168;18.156;2023-04-01T14:54:04;4.00;;;2.70;;
76552;SDS011;65395;53.168;18.156;2023-04-01T14:59:38;4.50;;;2.80;;
76552;SDS011;65395;53.168;18.156;2023-04-01T15:05:04;4.50;;;3.00;;
76552;SDS011;65395;53.168;18.156;2023-04-01T15:07:46;4.70;;;2.80;;
76552;SDS011;65395;53.168;18.156;2023-04-01T15:13:18;5.50;;;3.10;;
76552;SDS011;65395;53.168;18.156;2023-04-01T15:16:11;5.40;;;3.20;;
76552;SDS011;65395;53.168;18.156;2023-04-01T15:18:56;5.40;;;3.00;;
76552;SDS011;65395;53.168;18.156;2023-04-01T15:21:41;7.60;;;4.10;;
76552;SDS011;65395;53.168;18.156;2023-04-01T15:24:21;4.90;;;2.90;;
76552;SDS011;65395;53.168;18.156;2023-04-01T15:27:02;6.70;;;3.50;;
76552;SDS011;65395;53.168;18.156;2023-04-01T15:35:29;6.40;;;3.50;;
76552;SDS011;65395;53.168;18.156;2023-04-01T15:38:17;4.00;;;2.70;;
76552;SDS011;65395;53.168;18.156;2023-04-01T15:41:02;7.30;;;3.60;;
76552;SDS011;65395;53.168;18.156;2023-04-01T15:43:41;8.30;;;3.60;;
76552;SDS011;65395;53.168;18.156;2023-04-01T15:49:09;5.50;;;2.70;;
76552;SDS011;65395;53.168;18.156;2023-04-01T15:52:03;4.20;;;2.60;;
76552;SDS011;65395;53.168;18.156;2023-04-01T15:54:50;4.30;;;2.50;;
76552;SDS011;65395;53.168;18.156;2023-04-01T15:58:00;4.50;;;2.80;;
76552;SDS011;65395;53.168;18.156;2023-04-01T16:00:31;3.40;;;2.30;;
76552;SDS011;65395;53.168;18.156;2023-04-01T16:03:17;5.10;;;2.20;;
76552;SDS011;65395;53.168;18.156;2023-04-01T16:05:58;3.80;;;2.20;;
76552;SDS011;65395;53.168;18.156;2023-04-01T16:08:56;4.00;;;2.30;;
76552;SDS011;65395;53.168;18.156;2023-04-01T16:11:37;4.40;;;2.30;;
76552;SDS011;65395;53.168;18.156;2023-04-01T16:17:03;2.80;;;1.80;;
76552;SDS011;65395;53.168;18.156;2023-04-01T16:30:48;4.50;;;2.60;;
76552;SDS011;65395;53.168;18.156;2023-04-01T16:36:28;4.40;;;2.40;;
76552;SDS011;65395;53.168;18.156;2023-04-01T16:44:54;5.90;;;2.90;;
76552;SDS011;65395;53.168;18.156;2023-04-01T16:47:32;6.00;;;3.30;;
76552;SDS011;65395;53.168;18.156;2023-04-01T16:53:10;4.80;;;2.70;;
76552;SDS011;65395;53.168;18.156;2023-04-01T16:55:51;6.40;;;3.00;;
76552;SDS011;65395;53.168;18.156;2023-04-01T16:58:41;4.80;;;3.00;;
76552;SDS011;65395;53.168;18.156;2023-04-01T17:01:20;6.10;;;3.00;;
76552;SDS011;65395;53.168;18.156;2023-04-01T17:03:53;5.60;;;3.00;;
76552;SDS011;65395;53.168;18.156;2023-04-01T17:06:30;5.70;;;3.40;;
76552;SDS011;65395;53.168;18.156;2023-04-01T17:14:40;3.20;;;2.80;;
76552;SDS011;65395;53.168;18.156;2023-04-01T17:20:05;4.20;;;3.00;;
76552;SDS011;65395;53.168;18.156;2023-04-01T17:22:49;4.20;;;3.60;;
76552;SDS011;65395;53.168;18.156;2023-04-01T17:25:29;4.10;;;3.30;;
76552;SDS011;65395;53.168;18.156;2023-04-01T17:31:07;4.60;;;3.40;;
76552;SDS011;65395;53.168;18.156;2023-04-01T17:33:56;4.90;;;3.80;;
76552;SDS011;65395;53.168;18.156;2023-04-01T17:36:45;5.30;;;3.80;;
76552;SDS011;65395;53.168;18.156;2023-04-01T17:42:37;4.90;;;3.50;;
76552;SDS011;65395;53.168;18.156;2023-04-01T17:45:21;4.90;;;4.00;;
76552;SDS011;65395;53.168;18.156;2023-04-01T17:48:06;6.70;;;4.70;;
76552;SDS011;65395;53.168;18.156;2023-04-01T17:59:19;6.60;;;5.10;;
76552;SDS011;65395;53.168;18.156;2023-04-01T18:04:49;6.00;;;4.40;;
76552;SDS011;65395;53.168;18.156;2023-04-01T18:07:35;7.30;;;4.50;;
76552;SDS011;65395;53.168;18.156;2023-04-01T18:18:58;6.90;;;4.70;;
76552;SDS011;65395;53.168;18.156;2023-04-01T18:21:42;5.60;;;3.80;;
76552;SDS011;65395;53.168;18.156;2023-04-01T18:24:16;6.10;;;4.20;;
76552;SDS011;65395;53.168;18.156;2023-04-01T18:26:59;7.10;;;4.80;;
76552;SDS011;65395;53.168;18.156;2023-04-01T18:29:44;8.60;;;5.40;;
76552;SDS011;65395;53.168;18.156;2023-04-01T18:32:22;7.20;;;5.30;;
76552;SDS011;65395;53.168;18.156;2023-04-01T18:35:12;8.90;;;5.80;;
76552;SDS011;65395;53.168;18.156;2023-04-01T18:37:50;8.90;;;6.00;;
76552;SDS011;65395;53.168;18.156;2023-04-01T18:40:45;10.60;;;6.20;;
76552;SDS011;65395;53.168;18.156;2023-04-01T18:43:22;7.10;;;5.60;;
76552;SDS011;65395;53.168;18.156;2023-04-01T18:46:07;6.90;;;5.70;;
76552;SDS011;65395;53.168;18.156;2023-04-01T18:51:45;8.70;;;5.80;;
76552;SDS011;65395;53.168;18.156;2023-04-01T18:54:31;7.40;;;5.70;;
76552;SDS011;65395;53.168;18.156;2023-04-01T18:57:03;9.00;;;5.70;;
76552;SDS011;65395;53.168;18.156;2023-04-01T19:02:29;7.70;;;5.80;;
76552;SDS011;65395;53.168;18.156;2023-04-01T19:05:05;9.60;;;6.10;;
76552;SDS011;65395;53.168;18.156;2023-04-01T19:07:41;7.70;;;6.10;;
76552;SDS011;65395;53.168;18.156;2023-04-01T19:10:14;8.10;;;5.60;;
76552;SDS011;65395;53.168;18.156;2023-04-01T19:12:54;8.60;;;6.00;;
76552;SDS011;65395;53.168;18.156;2023-04-01T19:15:49;10.60;;;6.30;;
76552;SDS011;65395;53.168;18.156;2023-04-01T19:18:27;9.10;;;6.40;;
76552;SDS011;65395;53.168;18.156;2023-04-01T19:21:21;9.90;;;6.40;;
76552;SDS011;65395;53.168;18.156;2023-04-01T19:24:13;11.90;;;7.00;;
76552;SDS011;65395;53.168;18.156;2023-04-01T19:27:03;12.20;;;7.60;;
76552;SDS011;65395;53.168;18.156;2023-04-01T19:29:52;11.60;;;7.50;;
76552;SDS011;65395;53.168;18.156;2023-04-01T19:32:33;11.00;;;7.00;;
76552;SDS011;65395;53.168;18.156;2023-04-01T19:40:58;14.80;;;7.90;;
76552;SDS011;65395;53.168;18.156;2023-04-01T19:46:33;14.50;;;7.60;;
76552;SDS011;65395;53.168;18.156;2023-04-01T19:49:14;11.70;;;8.20;;
76552;SDS011;65395;53.168;18.156;2023-04-01T19:51:58;12.60;;;8.20;;
76552;SDS011;65395;53.168;18.156;2023-04-01T19:57:30;13.10;;;8.00;;
76552;SDS011;65395;53.168;18.156;2023-04-01T20:00:22;16.20;;;8.70;;
76552;SDS011;65395;53.168;18.156;2023-04-01T20:03:01;15.10;;;8.40;;
76552;SDS011;65395;53.168;18.156;2023-04-01T20:05:44;11.30;;;7.50;;
76552;SDS011;65395;53.168;18.156;2023-04-01T20:13:47;11.30;;;7.60;;
76552;SDS011;65395;53.168;18.156;2023-04-01T20:16:23;12.20;;;7.30;;
76552;SDS011;65395;53.168;18.156;2023-04-01T20:19:14;11.40;;;6.40;;
76552;SDS011;65395;53.168;18.156;2023-04-01T20:21:57;11.00;;;6.30;;
76552;SDS011;65395;53.168;18.156;2023-04-01T20:24:29;12.10;;;7.10;;
76552;SDS011;65395;53.168;18.156;2023-04-01T20:27:10;9.40;;;6.10;;
76552;SDS011;65395;53.168;18.156;2023-04-01T20:32:41;8.70;;;6.40;;
76552;SDS011;65395;53.168;18.156;2023-04-01T20:35:34;10.70;;;6.50;;
76552;SDS011;65395;53.168;18.156;2023-04-01T20:41:12;12.40;;;6.90;;